sensor_id;sensor_type;location;lat;lon;timestamp;pressure;altitude;pressure_sealevel;temperature;humidity
7182;BME280;3632;42.724;23.298;2022-08-19T00:01:55;95111.59;;;24.07;60.64
7182;BME280;3632;42.724;23.298;2022-08-19T00:04:25;95110.41;;;24.09;61.13
7182;BME280;3632;42.724;23.298;2022-08-19T00:06:52;94956.22;;;23.05;60.69
7182;BME280;3632;42.724;23.298;2022-08-19T00:09:22;95113.00;;;24.09;60.83
7182;BME280;3632;42.724;23.298;2022-08-19T00:11:51;95118.03;;;24.04;60.69
7182;BME280;3632;42.724;23.298;2022-08-19T00:14:19;95115.25;;;23.99;61.11
7182;BME280;3632;42.724;23.298;2022-08-19T00:16:48;95117.66;;;24.01;61.55
7182;BME280;3632;42.724;23.298;2022-08-19T00:19:16;95121.63;;;24.03;61.10
7182;BME280;3632;42.724;23.298;2022-08-19T00:21:43;95051.34;;;23.52;61.33
7182;BME280;3632;42.724;23.298;2022-08-19T00:24:12;95129.25;;;24.05;61.33
7182;BME280;3632;42.724;23.298;2022-08-19T00:26:40;95137.47;;;23.95;61.89
7182;BME280;3632;42.724;23.298;2022-08-19T00:29:11;95130.72;;;23.88;62.91
7182;BME280;3632;42.724;23.298;2022-08-19T00:31:38;95131.50;;;23.82;62.78
7182;BME280;3632;42.724;23.298;2022-08-19T00:34:05;95087.78;;;23.46;63.06
7182;BME280;3632;42.724;23.298;2022-08-19T00:36:32;95061.97;;;23.38;62.85
7182;BME280;3632;42.724;23.298;2022-08-19T00:38:59;95122.50;;;23.84;62.96
7182;BME280;3632;42.724;23.298;2022-08-19T00:41:27;95120.91;;;23.83;62.71
7182;BME280;3632;42.724;23.298;2022-08-19T00:43:59;95118.75;;;23.67;63.48
7182;BME280;3632;42.724;23.298;2022-08-19T00:46:28;95114.16;;;23.62;63.98
7182;BME280;3632;42.724;23.298;2022-08-19T00:48:55;95111.75;;;23.61;63.95
7182;BME280;3632;42.724;23.298;2022-08-19T00:51:23;95124.78;;;23.54;64.19
7182;BME280;3632;42.724;23.298;2022-08-19T00:53:52;95101.97;;;23.37;64.48
7182;BME280;3632;42.724;23.298;2022-08-19T00:56:19;95112.59;;;23.42;64.69
7182;BME280;3632;42.724;23.298;2022-08-19T00:58:46;95108.19;;;23.42;64.58
7182;BME280;3632;42.724;23.298;2022-08-19T01:01:13;95112.00;;;23.46;64.48
7182;BME280;3632;42.724;23.298;2022-08-19T01:03:41;95073.38;;;23.23;64.33
7182;BME280;3632;42.724;23.298;2022-08-19T01:06:08;95115.00;;;23.43;64.21
7182;BME280;3632;42.724;23.298;2022-08-19T01:08:35;95049.22;;;23.03;63.82
7182;BME280;3632;42.724;23.298;2022-08-19T01:11:02;95117.97;;;23.40;63.26
7182;BME280;3632;42.724;23.298;2022-08-19T01:13:32;95105.56;;;23.42;62.14
7182;BME280;3632;42.724;23.298;2022-08-19T01:16:03;95122.38;;;23.27;63.83
7182;BME280;3632;42.724;23.298;2022-08-19T01:18:32;95121.38;;;23.28;63.54
7182;BME280;3632;42.724;23.298;2022-08-19T01:21:09;95125.78;;;23.27;63.89
7182;BME280;3632;42.724;23.298;2022-08-19T01:23:38;95125.38;;;23.17;64.18
7182;BME280;3632;42.724;23.298;2022-08-19T01:26:13;95128.63;;;23.12;64.59
7182;BME280;3632;42.724;23.298;2022-08-19T01:28:41;95113.00;;;23.12;64.66
7182;BME280;3632;42.724;23.298;2022-08-19T01:31:10;95112.59;;;23.09;65.41
7182;BME280;3632;42.724;23.298;2022-08-19T01:33:37;94982.84;;;22.15;65.94
7182;BME280;3632;42.724;23.298;2022-08-19T01:36:06;95110.59;;;22.85;66.45
7182;BME280;3632;42.724;23.298;2022-08-19T01:38:36;95082.19;;;22.57;66.66
7182;BME280;3632;42.724;23.298;2022-08-19T01:41:05;95106.41;;;22.77;66.81
7182;BME280;3632;42.724;23.298;2022-08-19T01:43:32;95118.78;;;22.75;66.47
7182;BME280;3632;42.724;23.298;2022-08-19T01:46:00;95108.59;;;22.73;65.87
7182;BME280;3632;42.724;23.298;2022-08-19T01:48:27;95098.16;;;22.67;65.55
7182;BME280;3632;42.724;23.298;2022-08-19T01:50:55;95126.19;;;22.98;65.12
7182;BME280;3632;42.724;23.298;2022-08-19T01:53:22;95115.00;;;23.04;64.79
7182;BME280;3632;42.724;23.298;2022-08-19T01:55:48;95116.22;;;23.08;64.98
7182;BME280;3632;42.724;23.298;2022-08-19T01:58:20;95125.59;;;23.02;64.77
7182;BME280;3632;42.724;23.298;2022-08-19T02:00:48;95122.22;;;22.95;65.37
7182;BME280;3632;42.724;23.298;2022-08-19T02:03:15;95140.00;;;22.85;66.20
7182;BME280;3632;42.724;23.298;2022-08-19T02:05:43;95134.00;;;22.85;65.96
7182;BME280;3632;42.724;23.298;2022-08-19T02:08:11;95130.78;;;22.76;66.15
7182;BME280;3632;42.724;23.298;2022-08-19T02:10:39;95134.59;;;22.80;66.23
7182;BME280;3632;42.724;23.298;2022-08-19T02:13:06;95132.78;;;22.81;65.94
7182;BME280;3632;42.724;23.298;2022-08-19T02:15:34;95134.19;;;22.70;65.76
7182;BME280;3632;42.724;23.298;2022-08-19T02:18:01;95117.00;;;22.82;66.18
7182;BME280;3632;42.724;23.298;2022-08-19T02:20:28;95122.19;;;22.69;66.64
7182;BME280;3632;42.724;23.298;2022-08-19T02:22:55;95123.00;;;22.69;66.66
7182;BME280;3632;42.724;23.298;2022-08-19T02:25:22;95145.56;;;22.69;66.89
7182;BME280;3632;42.724;23.298;2022-08-19T02:27:49;95128.34;;;22.61;67.35
7182;BME280;3632;42.724;23.298;2022-08-19T02:30:16;95129.72;;;22.51;67.60
7182;BME280;3632;42.724;23.298;2022-08-19T02:32:45;95131.50;;;22.50;67.45
7182;BME280;3632;42.724;23.298;2022-08-19T02:35:13;94991.25;;;21.57;68.16
7182;BME280;3632;42.724;23.298;2022-08-19T02:37:40;95122.72;;;22.45;68.12
7182;BME280;3632;42.724;23.298;2022-08-19T02:40:25;95125.47;;;22.23;68.38
7182;BME280;3632;42.724;23.298;2022-08-19T02:42:52;95131.88;;;22.41;68.22
7182;BME280;3632;42.724;23.298;2022-08-19T02:45:19;95129.69;;;22.38;68.20
7182;BME280;3632;42.724;23.298;2022-08-19T02:47:47;95124.47;;;22.31;68.95
7182;BME280;3632;42.724;23.298;2022-08-19T02:50:14;94993.59;;;21.38;69.09
7182;BME280;3632;42.724;23.298;2022-08-19T02:52:41;95132.44;;;22.23;69.08
7182;BME280;3632;42.724;23.298;2022-08-19T02:55:08;95136.84;;;22.22;69.39
7182;BME280;3632;42.724;23.298;2022-08-19T02:57:35;95138.41;;;22.17;69.49
7182;BME280;3632;42.724;23.298;2022-08-19T03:00:05;95135.22;;;22.15;68.87
7182;BME280;3632;42.724;23.298;2022-08-19T03:02:32;95105.72;;;21.88;69.19
7182;BME280;3632;42.724;23.298;2022-08-19T03:05:02;95138.34;;;22.04;69.10
7182;BME280;3632;42.724;23.298;2022-08-19T03:07:29;95069.94;;;21.36;68.65
7182;BME280;3632;42.724;23.298;2022-08-19T03:09:55;95087.03;;;21.65;68.59
7182;BME280;3632;42.724;23.298;2022-08-19T03:12:22;95130.88;;;21.87;68.14
7182;BME280;3632;42.724;23.298;2022-08-19T03:14:49;95134.44;;;21.80;69.06
7182;BME280;3632;42.724;23.298;2022-08-19T03:17:16;95134.78;;;21.77;69.87
7182;BME280;3632;42.724;23.298;2022-08-19T03:19:43;94954.06;;;20.61;70.29
7182;BME280;3632;42.724;23.298;2022-08-19T03:22:11;95137.59;;;21.75;70.62
7182;BME280;3632;42.724;23.298;2022-08-19T03:24:38;95134.94;;;21.69;70.38
7182;BME280;3632;42.724;23.298;2022-08-19T03:27:05;95095.53;;;21.46;70.31
7182;BME280;3632;42.724;23.298;2022-08-19T03:29:32;95135.75;;;21.69;70.40
7182;BME280;3632;42.724;23.298;2022-08-19T03:32:06;95144.09;;;21.65;70.77
7182;BME280;3632;42.724;23.298;2022-08-19T03:34:34;94960.34;;;20.52;70.71
7182;BME280;3632;42.724;23.298;2022-08-19T03:37:04;95142.13;;;21.67;70.28
7182;BME280;3632;42.724;23.298;2022-08-19T03:39:33;95136.78;;;21.68;70.45
7182;BME280;3632;42.724;23.298;2022-08-19T03:42:00;95147.75;;;21.70;70.59
7182;BME280;3632;42.724;23.298;2022-08-19T03:44:28;95146.19;;;21.76;70.37
7182;BME280;3632;42.724;23.298;2022-08-19T03:46:59;95158.91;;;21.71;70.57
7182;BME280;3632;42.724;23.298;2022-08-19T03:49:27;95156.56;;;21.76;70.17
7182;BME280;3632;42.724;23.298;2022-08-19T03:51:55;95162.00;;;21.87;69.61
7182;BME280;3632;42.724;23.298;2022-08-19T03:54:24;95164.84;;;21.93;69.52
7182;BME280;3632;42.724;23.298;2022-08-19T03:56:53;95166.25;;;21.95;69.52
7182;BME280;3632;42.724;23.298;2022-08-19T03:59:25;95167.44;;;21.93;69.44
7182;BME280;3632;42.724;23.298;2022-08-19T04:01:52;94814.03;;;19.73;69.55
7182;BME280;3632;42.724;23.298;2022-08-19T04:04:19;95163.88;;;21.94;69.93
7182;BME280;3632;42.724;23.298;2022-08-19T04:06:47;95116.94;;;21.61;69.64
7182;BME280;3632;42.724;23.298;2022-08-19T04:09:14;95176.47;;;21.97;69.93
7182;BME280;3632;42.724;23.298;2022-08-19T04:11:43;95173.78;;;21.90;69.76
7182;BME280;3632;42.724;23.298;2022-08-19T04:14:13;95157.19;;;21.84;69.83
7182;BME280;3632;42.724;23.298;2022-08-19T04:16:40;95171.00;;;21.92;69.87
7182;BME280;3632;42.724;23.298;2022-08-19T04:19:09;95169.53;;;21.76;70.12
7182;BME280;3632;42.724;23.298;2022-08-19T04:21:36;95178.25;;;21.96;70.30
7182;BME280;3632;42.724;23.298;2022-08-19T04:24:03;95180.28;;;22.07;69.95
7182;BME280;3632;42.724;23.298;2022-08-19T04:26:32;95177.91;;;22.12;69.15
7182;BME280;3632;42.724;23.298;2022-08-19T04:29:00;95183.13;;;22.12;68.79
7182;BME280;3632;42.724;23.298;2022-08-19T04:31:30;95184.56;;;22.21;68.03
7182;BME280;3632;42.724;23.298;2022-08-19T04:34:01;95032.44;;;21.32;67.44
7182;BME280;3632;42.724;23.298;2022-08-19T04:36:30;95204.34;;;22.29;67.18
7182;BME280;3632;42.724;23.298;2022-08-19T04:38:59;95120.75;;;21.58;67.97
7182;BME280;3632;42.724;23.298;2022-08-19T04:41:26;95183.56;;;22.29;67.07
7182;BME280;3632;42.724;23.298;2022-08-19T04:44:10;95198.53;;;22.20;67.75
7182;BME280;3632;42.724;23.298;2022-08-19T04:46:39;95189.75;;;22.21;67.85
7182;BME280;3632;42.724;23.298;2022-08-19T04:49:07;95137.03;;;21.86;67.96
7182;BME280;3632;42.724;23.298;2022-08-19T04:51:34;95170.34;;;22.17;67.88
7182;BME280;3632;42.724;23.298;2022-08-19T04:54:04;95182.19;;;22.26;67.90
7182;BME280;3632;42.724;23.298;2022-08-19T04:56:31;95190.97;;;22.32;68.03
7182;BME280;3632;42.724;23.298;2022-08-19T04:58:59;95188.59;;;22.37;67.99
7182;BME280;3632;42.724;23.298;2022-08-19T05:01:29;95188.19;;;22.33;67.49
7182;BME280;3632;42.724;23.298;2022-08-19T05:03:59;95019.06;;;21.28;67.59
7182;BME280;3632;42.724;23.298;2022-08-19T05:06:27;95182.94;;;22.20;67.57
7182;BME280;3632;42.724;23.298;2022-08-19T05:08:58;95185.00;;;22.31;67.61
7182;BME280;3632;42.724;23.298;2022-08-19T05:11:26;95189.56;;;22.29;67.95
7182;BME280;3632;42.724;23.298;2022-08-19T05:13:54;95191.59;;;22.34;68.26
7182;BME280;3632;42.724;23.298;2022-08-19T05:16:23;95191.00;;;22.39;68.14
7182;BME280;3632;42.724;23.298;2022-08-19T05:18:50;95195.63;;;22.43;68.77
7182;BME280;3632;42.724;23.298;2022-08-19T05:21:36;95194.81;;;22.49;68.55
7182;BME280;3632;42.724;23.298;2022-08-19T05:24:22;95200.47;;;22.53;67.46
7182;BME280;3632;42.724;23.298;2022-08-19T05:26:50;95181.66;;;22.51;67.66
7182;BME280;3632;42.724;23.298;2022-08-19T05:29:19;95193.13;;;22.69;67.31
7182;BME280;3632;42.724;23.298;2022-08-19T05:31:47;95192.56;;;22.74;67.26
7182;BME280;3632;42.724;23.298;2022-08-19T05:34:14;95072.44;;;21.98;66.62
7182;BME280;3632;42.724;23.298;2022-08-19T05:36:44;95198.16;;;22.84;66.27
7182;BME280;3632;42.724;23.298;2022-08-19T05:39:14;95071.47;;;22.06;65.90
7182;BME280;3632;42.724;23.298;2022-08-19T05:41:42;95192.59;;;22.87;66.42
7182;BME280;3632;42.724;23.298;2022-08-19T05:44:08;95191.19;;;22.91;67.11
7182;BME280;3632;42.724;23.298;2022-08-19T05:46:35;95197.78;;;23.00;67.07
7182;BME280;3632;42.724;23.298;2022-08-19T05:49:03;95187.81;;;23.04;66.61
7182;BME280;3632;42.724;23.298;2022-08-19T05:51:32;95193.41;;;23.07;66.02
7182;BME280;3632;42.724;23.298;2022-08-19T05:54:00;95187.00;;;23.10;65.36
7182;BME280;3632;42.724;23.298;2022-08-19T05:56:27;95189.00;;;23.14;65.69
7182;BME280;3632;42.724;23.298;2022-08-19T05:58:56;95190.59;;;23.22;65.86
7182;BME280;3632;42.724;23.298;2022-08-19T06:01:24;95193.19;;;23.22;65.66
7182;BME280;3632;42.724;23.298;2022-08-19T06:03:51;95189.00;;;23.28;65.16
7182;BME280;3632;42.724;23.298;2022-08-19T06:06:19;95190.00;;;23.40;64.81
7182;BME280;3632;42.724;23.298;2022-08-19T06:08:46;95186.22;;;23.49;64.34
7182;BME280;3632;42.724;23.298;2022-08-19T06:11:19;95195.84;;;23.55;63.12
7182;BME280;3632;42.724;23.298;2022-08-19T06:13:47;95176.22;;;23.52;63.33
7182;BME280;3632;42.724;23.298;2022-08-19T06:16:18;95183.41;;;23.70;62.11
7182;BME280;3632;42.724;23.298;2022-08-19T06:18:48;95152.81;;;23.46;62.05
7182;BME280;3632;42.724;23.298;2022-08-19T06:21:17;95186.59;;;23.79;62.24
7182;BME280;3632;42.724;23.298;2022-08-19T06:23:44;95192.56;;;23.86;61.23
7182;BME280;3632;42.724;23.298;2022-08-19T06:26:13;95199.19;;;23.88;61.50
7182;BME280;3632;42.724;23.298;2022-08-19T06:28:42;95193.75;;;23.96;61.61
7182;BME280;3632;42.724;23.298;2022-08-19T06:31:12;95196.13;;;24.04;61.39
7182;BME280;3632;42.724;23.298;2022-08-19T06:33:40;95191.94;;;24.10;61.36
7182;BME280;3632;42.724;23.298;2022-08-19T06:36:08;95190.50;;;24.14;61.69
7182;BME280;3632;42.724;23.298;2022-08-19T06:38:42;95191.69;;;24.25;61.54
7182;BME280;3632;42.724;23.298;2022-08-19T06:41:08;95187.25;;;24.32;60.65
7182;BME280;3632;42.724;23.298;2022-08-19T06:43:35;95190.03;;;24.37;60.20
7182;BME280;3632;42.724;23.298;2022-08-19T06:46:09;95188.84;;;24.39;60.02
7182;BME280;3632;42.724;23.298;2022-08-19T06:48:37;95188.81;;;24.46;60.79
7182;BME280;3632;42.724;23.298;2022-08-19T06:51:04;95191.94;;;24.61;60.48
7182;BME280;3632;42.724;23.298;2022-08-19T06:53:31;95183.25;;;24.74;60.36
7182;BME280;3632;42.724;23.298;2022-08-19T06:55:58;95183.03;;;24.75;59.72
7182;BME280;3632;42.724;23.298;2022-08-19T06:58:27;95184.81;;;24.81;59.94
7182;BME280;3632;42.724;23.298;2022-08-19T07:00:58;95189.38;;;24.92;59.42
7182;BME280;3632;42.724;23.298;2022-08-19T07:03:29;95198.38;;;24.96;59.30
7182;BME280;3632;42.724;23.298;2022-08-19T07:05:57;95195.31;;;25.06;58.72
7182;BME280;3632;42.724;23.298;2022-08-19T07:08:24;95137.53;;;24.71;58.54
7182;BME280;3632;42.724;23.298;2022-08-19T07:10:52;95196.03;;;25.20;58.65
7182;BME280;3632;42.724;23.298;2022-08-19T07:13:20;95187.88;;;25.34;58.36
7182;BME280;3632;42.724;23.298;2022-08-19T07:15:47;95128.31;;;25.07;57.91
7182;BME280;3632;42.724;23.298;2022-08-19T07:18:16;95171.94;;;25.42;57.63
7182;BME280;3632;42.724;23.298;2022-08-19T07:20:44;95192.69;;;25.62;57.00
7182;BME280;3632;42.724;23.298;2022-08-19T07:23:11;95193.59;;;25.74;57.12
7182;BME280;3632;42.724;23.298;2022-08-19T07:25:38;95195.47;;;25.85;56.89
7182;BME280;3632;42.724;23.298;2022-08-19T07:28:05;95163.72;;;25.88;56.33
7182;BME280;3632;42.724;23.298;2022-08-19T07:30:32;95184.97;;;26.10;55.68
7182;BME280;3632;42.724;23.298;2022-08-19T07:33:02;95198.38;;;25.96;55.73
7182;BME280;3632;42.724;23.298;2022-08-19T07:35:29;95170.31;;;25.91;55.47
7182;BME280;3632;42.724;23.298;2022-08-19T07:37:59;95178.06;;;26.16;54.68
7182;BME280;3632;42.724;23.298;2022-08-19T07:40:28;95185.34;;;26.32;55.28
7182;BME280;3632;42.724;23.298;2022-08-19T07:42:55;95182.88;;;26.37;54.27
7182;BME280;3632;42.724;23.298;2022-08-19T07:45:22;95178.25;;;26.39;53.57
7182;BME280;3632;42.724;23.298;2022-08-19T07:47:49;95179.22;;;26.56;54.46
7182;BME280;3632;42.724;23.298;2022-08-19T07:50:16;95182.44;;;26.70;54.37
7182;BME280;3632;42.724;23.298;2022-08-19T07:52:44;95193.84;;;26.75;54.13
7182;BME280;3632;42.724;23.298;2022-08-19T07:55:13;95186.31;;;26.86;54.00
7182;BME280;3632;42.724;23.298;2022-08-19T07:57:40;95183.22;;;26.89;53.73
7182;BME280;3632;42.724;23.298;2022-08-19T08:00:07;95186.53;;;26.96;52.83
7182;BME280;3632;42.724;23.298;2022-08-19T08:02:34;95180.88;;;26.99;52.00
7182;BME280;3632;42.724;23.298;2022-08-19T08:05:02;95174.66;;;27.11;51.54
7182;BME280;3632;42.724;23.298;2022-08-19T08:07:47;95181.94;;;27.21;51.18
7182;BME280;3632;42.724;23.298;2022-08-19T08:10:32;94993.03;;;26.13;51.39
7182;BME280;3632;42.724;23.298;2022-08-19T08:12:59;95180.25;;;27.38;50.54
7182;BME280;3632;42.724;23.298;2022-08-19T08:15:26;95146.22;;;27.38;49.98
7182;BME280;3632;42.724;23.298;2022-08-19T08:17:53;95177.00;;;27.66;48.67
7182;BME280;3632;42.724;23.298;2022-08-19T08:20:20;95162.66;;;27.68;48.80
7182;BME280;3632;42.724;23.298;2022-08-19T08:22:47;95159.56;;;27.71;47.96
7182;BME280;3632;42.724;23.298;2022-08-19T08:25:34;95167.88;;;27.80;47.90
7182;BME280;3632;42.724;23.298;2022-08-19T08:28:03;95154.88;;;27.97;47.92
7182;BME280;3632;42.724;23.298;2022-08-19T08:30:30;95157.16;;;28.05;47.53
7182;BME280;3632;42.724;23.298;2022-08-19T08:33:01;95158.41;;;28.14;47.61
7182;BME280;3632;42.724;23.298;2022-08-19T08:35:28;95152.09;;;28.27;46.81
7182;BME280;3632;42.724;23.298;2022-08-19T08:37:55;95154.22;;;28.41;46.54
7182;BME280;3632;42.724;23.298;2022-08-19T08:40:28;95154.19;;;28.53;46.08
7182;BME280;3632;42.724;23.298;2022-08-19T08:42:58;95150.97;;;28.63;45.99
7182;BME280;3632;42.724;23.298;2022-08-19T08:45:30;95143.84;;;28.75;45.06
7182;BME280;3632;42.724;23.298;2022-08-19T08:48:02;95152.56;;;28.92;45.58
7182;BME280;3632;42.724;23.298;2022-08-19T08:50:34;95141.84;;;29.10;45.09
7182;BME280;3632;42.724;23.298;2022-08-19T08:53:05;95133.72;;;29.28;44.04
7182;BME280;3632;42.724;23.298;2022-08-19T08:55:33;95142.81;;;29.37;44.38
7182;BME280;3632;42.724;23.298;2022-08-19T08:58:05;95133.28;;;29.48;44.55
7182;BME280;3632;42.724;23.298;2022-08-19T09:00:35;95140.09;;;29.66;44.06
7182;BME280;3632;42.724;23.298;2022-08-19T09:03:07;95129.69;;;29.76;43.88
7182;BME280;3632;42.724;23.298;2022-08-19T09:05:40;95133.84;;;29.88;43.68
7182;BME280;3632;42.724;23.298;2022-08-19T09:08:17;95122.47;;;30.05;43.80
7182;BME280;3632;42.724;23.298;2022-08-19T09:10:52;95121.31;;;30.17;42.23
7182;BME280;3632;42.724;23.298;2022-08-19T09:13:25;95123.28;;;30.27;42.16
7182;BME280;3632;42.724;23.298;2022-08-19T09:15:59;95122.38;;;30.38;40.62
7182;BME280;3632;42.724;23.298;2022-08-19T09:18:38;95130.13;;;30.50;40.31
7182;BME280;3632;42.724;23.298;2022-08-19T09:21:06;95106.19;;;30.51;38.63
7182;BME280;3632;42.724;23.298;2022-08-19T09:23:34;95112.47;;;30.72;38.27
7182;BME280;3632;42.724;23.298;2022-08-19T09:26:00;95110.22;;;30.85;38.06
7182;BME280;3632;42.724;23.298;2022-08-19T09:28:29;95098.75;;;30.97;37.46
7182;BME280;3632;42.724;23.298;2022-08-19T09:30:56;95110.75;;;31.14;37.44
7182;BME280;3632;42.724;23.298;2022-08-19T09:33:23;95092.97;;;31.32;37.29
7182;BME280;3632;42.724;23.298;2022-08-19T09:35:50;95097.81;;;31.50;37.09
7182;BME280;3632;42.724;23.298;2022-08-19T09:38:17;95077.81;;;31.54;37.02
7182;BME280;3632;42.724;23.298;2022-08-19T09:40:43;95094.28;;;31.71;35.53
7182;BME280;3632;42.724;23.298;2022-08-19T09:43:10;95090.38;;;31.84;34.13
7182;BME280;3632;42.724;23.298;2022-08-19T09:45:38;95085.19;;;31.99;34.51
7182;BME280;3632;42.724;23.298;2022-08-19T09:48:05;95091.59;;;32.13;33.19
7182;BME280;3632;42.724;23.298;2022-08-19T09:50:31;95086.63;;;32.32;34.67
7182;BME280;3632;42.724;23.298;2022-08-19T09:53:00;95085.09;;;32.46;33.27
7182;BME280;3632;42.724;23.298;2022-08-19T09:55:26;95052.63;;;32.25;32.14
7182;BME280;3632;42.724;23.298;2022-08-19T09:57:54;95079.81;;;32.51;32.85
7182;BME280;3632;42.724;23.298;2022-08-19T10:00:20;95084.59;;;32.54;32.35
7182;BME280;3632;42.724;23.298;2022-08-19T10:02:49;95072.22;;;32.65;31.63
7182;BME280;3632;42.724;23.298;2022-08-19T10:05:15;95077.50;;;32.75;31.86
7182;BME280;3632;42.724;23.298;2022-08-19T10:08:11;95030.25;;;32.68;30.94
7182;BME280;3632;42.724;23.298;2022-08-19T10:10:38;95068.25;;;33.02;31.27
7182;BME280;3632;42.724;23.298;2022-08-19T10:13:05;95058.75;;;33.06;31.24
7182;BME280;3632;42.724;23.298;2022-08-19T10:15:32;95060.09;;;33.24;31.47
7182;BME280;3632;42.724;23.298;2022-08-19T10:18:02;95060.84;;;33.45;31.52
7182;BME280;3632;42.724;23.298;2022-08-19T10:20:29;95059.25;;;33.54;30.33
7182;BME280;3632;42.724;23.298;2022-08-19T10:22:55;95054.75;;;33.55;30.78
7182;BME280;3632;42.724;23.298;2022-08-19T10:25:24;95053.13;;;33.74;30.39
7182;BME280;3632;42.724;23.298;2022-08-19T10:27:52;95057.59;;;33.83;30.21
7182;BME280;3632;42.724;23.298;2022-08-19T10:30:19;95048.59;;;33.84;29.73
7182;BME280;3632;42.724;23.298;2022-08-19T10:32:46;95057.31;;;33.90;30.12
7182;BME280;3632;42.724;23.298;2022-08-19T10:35:14;95050.06;;;34.16;30.29
7182;BME280;3632;42.724;23.298;2022-08-19T10:37:41;94984.00;;;33.95;30.12
7182;BME280;3632;42.724;23.298;2022-08-19T10:40:08;95047.19;;;34.51;29.67
7182;BME280;3632;42.724;23.298;2022-08-19T10:42:37;95044.72;;;34.65;30.12
7182;BME280;3632;42.724;23.298;2022-08-19T10:45:05;95037.25;;;34.77;29.81
7182;BME280;3632;42.724;23.298;2022-08-19T10:47:32;95011.00;;;34.80;29.54
7182;BME280;3632;42.724;23.298;2022-08-19T10:49:59;95030.50;;;35.23;30.52
7182;BME280;3632;42.724;23.298;2022-08-19T10:52:46;95030.53;;;35.47;29.58
7182;BME280;3632;42.724;23.298;2022-08-19T10:55:14;95032.34;;;35.52;28.50
7182;BME280;3632;42.724;23.298;2022-08-19T10:57:58;95024.47;;;35.70;29.67
7182;BME280;3632;42.724;23.298;2022-08-19T11:00:25;95022.66;;;35.90;29.30
7182;BME280;3632;42.724;23.298;2022-08-19T11:02:52;95008.53;;;35.94;29.02
7182;BME280;3632;42.724;23.298;2022-08-19T11:05:19;95027.22;;;36.27;28.97
7182;BME280;3632;42.724;23.298;2022-08-19T11:07:48;95028.44;;;36.34;28.61
7182;BME280;3632;42.724;23.298;2022-08-19T11:10:15;95029.00;;;36.50;28.16
7182;BME280;3632;42.724;23.298;2022-08-19T11:12:44;95024.13;;;36.57;27.42
7182;BME280;3632;42.724;23.298;2022-08-19T11:15:12;94920.69;;;35.96;27.53
7182;BME280;3632;42.724;23.298;2022-08-19T11:17:39;95015.09;;;36.58;27.11
7182;BME280;3632;42.724;23.298;2022-08-19T11:20:10;95018.72;;;36.06;27.66
7182;BME280;3632;42.724;23.298;2022-08-19T11:22:38;95015.31;;;36.43;28.35
7182;BME280;3632;42.724;23.298;2022-08-19T11:25:07;95015.94;;;36.72;28.55
7182;BME280;3632;42.724;23.298;2022-08-19T11:27:37;95016.47;;;36.88;27.60
7182;BME280;3632;42.724;23.298;2022-08-19T11:30:06;95009.31;;;37.02;27.69
7182;BME280;3632;42.724;23.298;2022-08-19T11:32:33;95008.00;;;37.18;27.14
7182;BME280;3632;42.724;23.298;2022-08-19T11:35:00;94998.66;;;37.21;26.88
7182;BME280;3632;42.724;23.298;2022-08-19T11:37:27;94998.59;;;37.26;26.92
7182;BME280;3632;42.724;23.298;2022-08-19T11:39:53;94995.31;;;37.29;26.26
7182;BME280;3632;42.724;23.298;2022-08-19T11:42:22;94983.22;;;37.36;26.42
7182;BME280;3632;42.724;23.298;2022-08-19T11:45:07;94938.34;;;37.21;25.83
7182;BME280;3632;42.724;23.298;2022-08-19T11:47:35;94990.34;;;37.55;25.86
7182;BME280;3632;42.724;23.298;2022-08-19T11:50:04;94991.09;;;37.41;25.86
7182;BME280;3632;42.724;23.298;2022-08-19T11:52:31;94991.81;;;37.61;26.37
7182;BME280;3632;42.724;23.298;2022-08-19T11:54:58;94981.06;;;37.79;26.13
7182;BME280;3632;42.724;23.298;2022-08-19T11:57:27;94982.75;;;37.75;25.98
7182;BME280;3632;42.724;23.298;2022-08-19T11:59:54;94982.41;;;37.90;26.07
7182;BME280;3632;42.724;23.298;2022-08-19T12:02:21;94958.34;;;37.95;25.26
7182;BME280;3632;42.724;23.298;2022-08-19T12:04:48;94969.88;;;38.18;25.29
7182;BME280;3632;42.724;23.298;2022-08-19T12:07:15;94966.47;;;38.26;25.13
7182;BME280;3632;42.724;23.298;2022-08-19T12:09:42;94965.97;;;38.24;25.81
7182;BME280;3632;42.724;23.298;2022-08-19T12:12:09;94961.00;;;38.45;25.60
7182;BME280;3632;42.724;23.298;2022-08-19T12:14:37;94954.16;;;38.30;24.63
7182;BME280;3632;42.724;23.298;2022-08-19T12:17:04;94958.66;;;38.44;25.25
7182;BME280;3632;42.724;23.298;2022-08-19T12:19:32;94950.06;;;38.47;25.13
7182;BME280;3632;42.724;23.298;2022-08-19T12:22:00;94951.63;;;38.48;24.44
7182;BME280;3632;42.724;23.298;2022-08-19T12:24:30;94950.06;;;38.47;25.11
7182;BME280;3632;42.724;23.298;2022-08-19T12:26:57;94942.53;;;38.71;24.66
7182;BME280;3632;42.724;23.298;2022-08-19T12:29:26;94933.16;;;38.73;24.48
7182;BME280;3632;42.724;23.298;2022-08-19T12:31:55;94926.66;;;38.88;25.91
7182;BME280;3632;42.724;23.298;2022-08-19T12:34:26;94928.06;;;39.16;25.38
7182;BME280;3632;42.724;23.298;2022-08-19T12:36:55;94923.34;;;39.22;25.35
7182;BME280;3632;42.724;23.298;2022-08-19T12:39:22;94937.69;;;39.35;25.20
7182;BME280;3632;42.724;23.298;2022-08-19T12:41:49;94918.75;;;39.45;24.86
7182;BME280;3632;42.724;23.298;2022-08-19T12:44:16;94924.13;;;39.62;24.42
7182;BME280;3632;42.724;23.298;2022-08-19T12:46:43;94920.69;;;39.70;24.17
7182;BME280;3632;42.724;23.298;2022-08-19T12:49:11;94890.06;;;39.59;24.16
7182;BME280;3632;42.724;23.298;2022-08-19T12:51:38;94919.47;;;39.76;23.84
7182;BME280;3632;42.724;23.298;2022-08-19T12:54:04;94915.81;;;39.72;24.04
7182;BME280;3632;42.724;23.298;2022-08-19T12:56:31;94913.44;;;39.62;24.34
7182;BME280;3632;42.724;23.298;2022-08-19T12:59:00;94909.34;;;39.64;23.90
7182;BME280;3632;42.724;23.298;2022-08-19T13:01:27;94902.47;;;39.63;23.36
7182;BME280;3632;42.724;23.298;2022-08-19T13:03:58;94905.91;;;39.64;23.94
7182;BME280;3632;42.724;23.298;2022-08-19T13:06:26;94905.56;;;39.48;23.66
7182;BME280;3632;42.724;23.298;2022-08-19T13:08:54;94900.78;;;39.76;24.13
7182;BME280;3632;42.724;23.298;2022-08-19T13:11:22;94889.63;;;39.74;23.64
7182;BME280;3632;42.724;23.298;2022-08-19T13:13:51;94886.34;;;39.94;23.39
7182;BME280;3632;42.724;23.298;2022-08-19T13:16:21;94889.94;;;39.98;23.48
7182;BME280;3632;42.724;23.298;2022-08-19T13:18:48;94899.69;;;39.94;23.13